sensor_id;sensor_type;location;lat;lon;timestamp;pressure;altitude;pressure_sealevel;temperature;humidity
47726;BME280;33483;48.294;16.388;2023-01-13T00:01:23;99694.19;;;5.79;100.00
47726;BME280;33483;48.294;16.388;2023-01-13T00:03:51;99690.22;;;5.80;100.00
47726;BME280;33483;48.294;16.388;2023-01-13T00:06:23;99690.22;;;5.80;100.00
47726;BME280;33483;48.294;16.388;2023-01-13T00:08:52;99684.94;;;5.77;100.00
47726;BME280;33483;48.294;16.388;2023-01-13T00:11:20;99680.16;;;5.71;100.00
47726;BME280;33483;48.294;16.388;2023-01-13T00:13:49;99682.38;;;5.67;100.00
47726;BME280;33483;48.294;16.388;2023-01-13T00:16:17;99667.38;;;5.63;100.00
47726;BME280;33483;48.294;16.388;2023-01-13T00:18:45;99668.06;;;5.58;100.00
47726;BME280;33483;48.294;16.388;2023-01-13T00:21:19;99666.31;;;5.55;100.00
47726;BME280;33483;48.294;16.388;2023-01-13T00:23:47;99663.78;;;5.51;100.00
47726;BME280;33483;48.294;16.388;2023-01-13T00:26:20;99664.00;;;5.48;100.00
47726;BME280;33483;48.294;16.388;2023-01-13T00:28:47;99666.25;;;5.49;100.00
47726;BME280;33483;48.294;16.388;2023-01-13T00:31:19;99660.03;;;5.49;100.00
47726;BME280;33483;48.294;16.388;2023-01-13T00:33:48;99654.25;;;5.47;100.00
47726;BME280;33483;48.294;16.388;2023-01-13T00:36:18;99649.25;;;5.45;100.00
47726;BME280;33483;48.294;16.388;2023-01-13T00:38:46;99643.50;;;5.43;100.00
47726;BME280;33483;48.294;16.388;2023-01-13T00:41:16;99650.72;;;5.41;100.00
47726;BME280;33483;48.294;16.388;2023-01-13T00:43:43;99649.72;;;5.38;100.00
47726;BME280;33483;48.294;16.388;2023-01-13T00:46:13;99653.91;;;5.34;100.00
47726;BME280;33483;48.294;16.388;2023-01-13T00:48:41;99659.91;;;5.32;100.00
47726;BME280;33483;48.294;16.388;2023-01-13T00:51:17;99656.66;;;5.34;100.00
47726;BME280;33483;48.294;16.388;2023-01-13T00:53:47;99654.22;;;5.41;100.00
47726;BME280;33483;48.294;16.388;2023-01-13T00:56:18;99653.53;;;5.52;100.00
47726;BME280;33483;48.294;16.388;2023-01-13T00:59:03;99656.59;;;5.59;100.00
47726;BME280;33483;48.294;16.388;2023-01-13T01:01:33;99651.59;;;5.63;100.00
47726;BME280;33483;48.294;16.388;2023-01-13T01:04:00;99650.38;;;5.64;100.00
47726;BME280;33483;48.294;16.388;2023-01-13T01:06:28;99641.88;;;5.62;100.00
47726;BME280;33483;48.294;16.388;2023-01-13T01:08:58;99647.59;;;5.59;100.00
47726;BME280;33483;48.294;16.388;2023-01-13T01:11:29;99642.56;;;5.52;100.00
47726;BME280;33483;48.294;16.388;2023-01-13T01:13:59;99640.53;;;5.47;100.00
47726;BME280;33483;48.294;16.388;2023-01-13T01:16:28;99640.22;;;5.39;100.00
47726;BME280;33483;48.294;16.388;2023-01-13T01:18:56;99631.69;;;5.37;100.00
47726;BME280;33483;48.294;16.388;2023-01-13T01:21:27;99632.97;;;5.36;100.00
47726;BME280;33483;48.294;16.388;2023-01-13T01:24:00;99627.69;;;5.33;100.00
47726;BME280;33483;48.294;16.388;2023-01-13T01:26:30;99611.91;;;5.28;100.00
47726;BME280;33483;48.294;16.388;2023-01-13T01:28:58;99619.34;;;5.22;100.00
47726;BME280;33483;48.294;16.388;2023-01-13T01:31:29;99615.34;;;5.17;100.00
47726;BME280;33483;48.294;16.388;2023-01-13T01:34:00;99610.34;;;5.16;100.00
47726;BME280;33483;48.294;16.388;2023-01-13T01:36:28;99611.28;;;5.13;100.00
47726;BME280;33483;48.294;16.388;2023-01-13T01:39:03;99617.28;;;5.11;100.00
47726;BME280;33483;48.294;16.388;2023-01-13T01:41:34;99612.81;;;5.14;100.00
47726;BME280;33483;48.294;16.388;2023-01-13T01:47:11;99617.28;;;5.11;100.00
47726;BME280;33483;48.294;16.388;2023-01-13T01:49:39;99614.53;;;5.11;100.00
47726;BME280;33483;48.294;16.388;2023-01-13T01:52:20;99606.75;;;5.04;100.00
47726;BME280;33483;48.294;16.388;2023-01-13T01:54:57;99608.22;;;5.00;100.00
47726;BME280;33483;48.294;16.388;2023-01-13T01:57:51;99610.69;;;4.98;100.00
47726;BME280;33483;48.294;16.388;2023-01-13T02:00:22;99605.81;;;5.13;100.00
47726;BME280;33483;48.294;16.388;2023-01-13T02:02:51;99597.31;;;5.11;100.00
47726;BME280;33483;48.294;16.388;2023-01-13T02:05:19;99602.81;;;5.11;100.00
47726;BME280;33483;48.294;16.388;2023-01-13T02:07:48;99595.53;;;5.08;100.00
47726;BME280;33483;48.294;16.388;2023-01-13T02:10:20;99598.00;;;5.06;100.00
47726;BME280;33483;48.294;16.388;2023-01-13T02:12:48;99592.00;;;5.02;100.00
47726;BME280;33483;48.294;16.388;2023-01-13T02:26:09;99574.16;;;4.86;100.00
47726;BME280;33483;48.294;16.388;2023-01-13T02:32:32;99569.84;;;4.80;100.00
47726;BME280;33483;48.294;16.388;2023-01-13T02:35:06;99568.09;;;4.77;100.00
47726;BME280;33483;48.294;16.388;2023-01-13T02:37:41;99557.88;;;4.77;100.00
47726;BME280;33483;48.294;16.388;2023-01-13T02:40:24;99554.84;;;4.75;100.00
47726;BME280;33483;48.294;16.388;2023-01-13T02:43:09;99561.59;;;4.74;100.00
47726;BME280;33483;48.294;16.388;2023-01-13T02:46:08;99560.81;;;4.74;100.00
47726;BME280;33483;48.294;16.388;2023-01-13T02:48:43;99563.03;;;4.70;100.00
47726;BME280;33483;48.294;16.388;2023-01-13T02:51:17;99561.28;;;4.67;100.00
47726;BME280;33483;48.294;16.388;2023-01-13T02:53:59;99561.00;;;4.65;100.00
47726;BME280;33483;48.294;16.388;2023-01-13T02:56:35;99556.28;;;4.65;100.00
47726;BME280;33483;48.294;16.388;2023-01-13T02:59:04;99549.97;;;4.59;100.00
47726;BME280;33483;48.294;16.388;2023-01-13T03:01:32;99556.31;;;4.71;100.00
47726;BME280;33483;48.294;16.388;2023-01-13T03:04:44;99556.78;;;4.69;100.00
47726;BME280;33483;48.294;16.388;2023-01-13T03:10:10;99554.41;;;4.51;100.00
47726;BME280;33483;48.294;16.388;2023-01-13T03:15:16;99556.28;;;4.39;100.00
47726;BME280;33483;48.294;16.388;2023-01-13T03:18:16;99553.50;;;4.34;100.00
47726;BME280;33483;48.294;16.388;2023-01-13T03:20:59;99549.94;;;4.28;100.00
47726;BME280;33483;48.294;16.388;2023-01-13T03:29:13;99548.59;;;4.18;100.00
47726;BME280;33483;48.294;16.388;2023-01-13T03:34:37;99544.53;;;4.08;100.00
47726;BME280;33483;48.294;16.388;2023-01-13T03:37:07;99549.72;;;4.06;100.00
47726;BME280;33483;48.294;16.388;2023-01-13T03:39:39;99544.94;;;4.01;100.00
47726;BME280;33483;48.294;16.388;2023-01-13T03:42:10;99544.72;;;4.04;100.00
47726;BME280;33483;48.294;16.388;2023-01-13T03:44:43;99534.44;;;3.99;100.00
47726;BME280;33483;48.294;16.388;2023-01-13T03:52:19;99538.69;;;4.00;100.00
47726;BME280;33483;48.294;16.388;2023-01-13T03:54:53;99537.72;;;4.03;100.00
47726;BME280;33483;48.294;16.388;2023-01-13T03:57:28;99542.22;;;4.06;100.00
47726;BME280;33483;48.294;16.388;2023-01-13T03:59:59;99540.25;;;4.07;100.00
47726;BME280;33483;48.294;16.388;2023-01-13T04:05:10;99535.53;;;4.07;100.00
47726;BME280;33483;48.294;16.388;2023-01-13T04:10:19;99528.09;;;4.13;100.00
47726;BME280;33483;48.294;16.388;2023-01-13T04:12:52;99534.34;;;4.14;100.00
47726;BME280;33483;48.294;16.388;2023-01-13T04:15:39;99532.63;;;4.16;100.00
47726;BME280;33483;48.294;16.388;2023-01-13T04:18:19;99532.16;;;4.18;100.00
47726;BME280;33483;48.294;16.388;2023-01-13T04:20:48;99526.16;;;4.19;100.00
47726;BME280;33483;48.294;16.388;2023-01-13T04:23:17;99528.00;;;4.28;100.00
47726;BME280;33483;48.294;16.388;2023-01-13T04:25:46;99531.78;;;4.30;100.00
47726;BME280;33483;48.294;16.388;2023-01-13T04:28:13;99532.00;;;4.27;100.00
47726;BME280;33483;48.294;16.388;2023-01-13T04:30:41;99521.22;;;4.23;100.00
47726;BME280;33483;48.294;16.388;2023-01-13T04:33:09;99525.97;;;4.23;100.00
47726;BME280;33483;48.294;16.388;2023-01-13T04:35:37;99527.66;;;4.20;100.00
47726;BME280;33483;48.294;16.388;2023-01-13T04:38:07;99530.63;;;4.17;100.00
47726;BME280;33483;48.294;16.388;2023-01-13T04:40:35;99525.34;;;4.13;100.00
47726;BME280;33483;48.294;16.388;2023-01-13T04:43:02;99530.59;;;4.11;100.00
47726;BME280;33483;48.294;16.388;2023-01-13T04:45:30;99524.06;;;4.09;100.00
47726;BME280;33483;48.294;16.388;2023-01-13T04:47:59;99526.53;;;4.07;100.00
47726;BME280;33483;48.294;16.388;2023-01-13T04:50:27;99529.63;;;4.14;100.00
47726;BME280;33483;48.294;16.388;2023-01-13T04:52:54;99529.34;;;4.12;100.00
47726;BME280;33483;48.294;16.388;2023-01-13T04:55:23;99520.09;;;4.10;100.00
47726;BME280;33483;48.294;16.388;2023-01-13T04:57:50;99522.31;;;4.06;100.00
47726;BME280;33483;48.294;16.388;2023-01-13T05:00:20;99522.78;;;4.04;100.00
47726;BME280;33483;48.294;16.388;2023-01-13T05:02:50;99522.81;;;4.10;100.00
47726;BME280;33483;48.294;16.388;2023-01-13T05:05:18;99522.16;;;4.15;100.00
47726;BME280;33483;48.294;16.388;2023-01-13T05:07:45;99515.41;;;4.16;100.00
47726;BME280;33483;48.294;16.388;2023-01-13T05:10:12;99520.69;;;4.19;100.00
47726;BME280;33483;48.294;16.388;2023-01-13T05:12:40;99520.41;;;4.17;100.00
47726;BME280;33483;48.294;16.388;2023-01-13T05:15:29;99513.16;;;4.14;100.00
47726;BME280;33483;48.294;16.388;2023-01-13T05:18:17;99514.16;;;4.17;100.00
47726;BME280;33483;48.294;16.388;2023-01-13T05:20:45;99516.69;;;4.20;100.00
47726;BME280;33483;48.294;16.388;2023-01-13T05:23:12;99520.91;;;4.16;100.00
47726;BME280;33483;48.294;16.388;2023-01-13T05:25:58;99511.41;;;4.11;100.00
47726;BME280;33483;48.294;16.388;2023-01-13T05:28:30;99501.66;;;4.10;100.00
47726;BME280;33483;48.294;16.388;2023-01-13T05:30:57;99509.38;;;4.12;100.00
47726;BME280;33483;48.294;16.388;2023-01-13T05:33:26;99513.59;;;4.07;100.00
47726;BME280;33483;48.294;16.388;2023-01-13T05:36:01;99512.34;;;4.08;100.00
47726;BME280;33483;48.294;16.388;2023-01-13T05:38:28;99510.03;;;4.01;100.00
47726;BME280;33483;48.294;16.388;2023-01-13T05:40:58;99517.25;;;3.99;100.00
47726;BME280;33483;48.294;16.388;2023-01-13T05:43:43;99523.94;;;3.98;100.00
47726;BME280;33483;48.294;16.388;2023-01-13T05:46:11;99525.69;;;3.95;100.00
47726;BME280;33483;48.294;16.388;2023-01-13T05:48:40;99522.19;;;3.95;100.00
47726;BME280;33483;48.294;16.388;2023-01-13T05:51:10;99525.19;;;3.97;100.00
47726;BME280;33483;48.294;16.388;2023-01-13T05:53:39;99526.88;;;3.89;100.00
47726;BME280;33483;48.294;16.388;2023-01-13T05:56:08;99533.34;;;3.91;100.00
47726;BME280;33483;48.294;16.388;2023-01-13T05:58:35;99522.13;;;3.89;100.00
47726;BME280;33483;48.294;16.388;2023-01-13T06:01:06;99526.59;;;3.87;100.00
47726;BME280;33483;48.294;16.388;2023-01-13T06:03:33;99521.31;;;3.83;100.00
47726;BME280;33483;48.294;16.388;2023-01-13T06:06:02;99519.09;;;3.87;100.00
47726;BME280;33483;48.294;16.388;2023-01-13T06:08:31;99521.84;;;3.87;100.00
47726;BME280;33483;48.294;16.388;2023-01-13T06:10:59;99523.09;;;3.86;100.00
47726;BME280;33483;48.294;16.388;2023-01-13T06:13:26;99519.78;;;3.82;100.00
47726;BME280;33483;48.294;16.388;2023-01-13T06:15:57;99520.28;;;3.81;100.00
47726;BME280;33483;48.294;16.388;2023-01-13T06:18:25;99522.69;;;3.73;100.00
47726;BME280;33483;48.294;16.388;2023-01-13T06:20:53;99520.91;;;3.70;100.00
47726;BME280;33483;48.294;16.388;2023-01-13T06:23:23;99525.63;;;3.70;100.00
47726;BME280;33483;48.294;16.388;2023-01-13T06:26:09;99523.09;;;3.66;100.00
47726;BME280;33483;48.294;16.388;2023-01-13T06:28:38;99534.75;;;3.61;100.00
47726;BME280;33483;48.294;16.388;2023-01-13T06:31:09;99516.06;;;3.60;100.00
47726;BME280;33483;48.294;16.388;2023-01-13T06:33:40;99513.03;;;3.58;100.00
47726;BME280;33483;48.294;16.388;2023-01-13T06:36:14;99519.75;;;3.57;100.00
47726;BME280;33483;48.294;16.388;2023-01-13T06:38:46;99521.75;;;3.56;100.00
47726;BME280;33483;48.294;16.388;2023-01-13T06:41:19;99530.16;;;3.53;100.00
47726;BME280;33483;48.294;16.388;2023-01-13T06:44:09;99521.47;;;3.54;100.00
47726;BME280;33483;48.294;16.388;2023-01-13T06:46:36;99520.53;;;3.57;100.00
47726;BME280;33483;48.294;16.388;2023-01-13T06:49:04;99519.28;;;3.58;100.00
47726;BME280;33483;48.294;16.388;2023-01-13T06:51:31;99525.03;;;3.60;100.00
47726;BME280;33483;48.294;16.388;2023-01-13T06:54:02;99527.78;;;3.60;100.00
47726;BME280;33483;48.294;16.388;2023-01-13T06:56:29;99534.28;;;3.63;100.00
47726;BME280;33483;48.294;16.388;2023-01-13T06:58:56;99524.91;;;3.69;100.00
47726;BME280;33483;48.294;16.388;2023-01-13T07:01:24;99532.44;;;3.74;100.00
47726;BME280;33483;48.294;16.388;2023-01-13T07:03:51;99527.94;;;3.77;100.00
47726;BME280;33483;48.294;16.388;2023-01-13T07:06:19;99528.78;;;3.83;100.00
47726;BME280;33483;48.294;16.388;2023-01-13T07:08:46;99530.34;;;3.89;100.00
47726;BME280;33483;48.294;16.388;2023-01-13T07:11:13;99523.94;;;3.98;100.00
47726;BME280;33483;48.294;16.388;2023-01-13T07:13:40;99532.28;;;4.09;100.00
47726;BME280;33483;48.294;16.388;2023-01-13T07:16:26;99525.13;;;4.17;100.00
47726;BME280;33483;48.294;16.388;2023-01-13T07:18:58;99525.75;;;4.26;100.00
47726;BME280;33483;48.294;16.388;2023-01-13T07:21:26;99526.81;;;4.34;100.00
47726;BME280;33483;48.294;16.388;2023-01-13T07:23:55;99516.38;;;4.38;100.00
47726;BME280;33483;48.294;16.388;2023-01-13T07:26:22;99524.13;;;4.40;100.00
47726;BME280;33483;48.294;16.388;2023-01-13T07:28:49;99519.72;;;4.48;100.00
47726;BME280;33483;48.294;16.388;2023-01-13T07:31:19;99532.72;;;4.53;100.00
47726;BME280;33483;48.294;16.388;2023-01-13T07:33:49;99529.47;;;4.54;100.00
47726;BME280;33483;48.294;16.388;2023-01-13T07:36:16;99524.50;;;4.53;100.00
47726;BME280;33483;48.294;16.388;2023-01-13T07:38:43;99524.72;;;4.55;100.00
47726;BME280;33483;48.294;16.388;2023-01-13T07:41:12;99519.25;;;4.55;100.00
47726;BME280;33483;48.294;16.388;2023-01-13T07:43:58;99518.94;;;4.47;100.00
47726;BME280;33483;48.294;16.388;2023-01-13T07:46:26;99524.44;;;4.47;100.00
47726;BME280;33483;48.294;16.388;2023-01-13T07:48:53;99523.13;;;4.43;100.00
47726;BME280;33483;48.294;16.388;2023-01-13T07:51:21;99525.38;;;4.39;100.00
47726;BME280;33483;48.294;16.388;2023-01-13T07:53:48;99535.13;;;4.45;100.00
47726;BME280;33483;48.294;16.388;2023-01-13T07:56:16;99531.91;;;4.47;100.00
47726;BME280;33483;48.294;16.388;2023-01-13T07:58:43;99533.44;;;4.53;100.00
47726;BME280;33483;48.294;16.388;2023-01-13T08:01:17;99533.81;;;4.67;100.00
47726;BME280;33483;48.294;16.388;2023-01-13T08:03:44;99541.88;;;4.76;100.00
47726;BME280;33483;48.294;16.388;2023-01-13T08:06:12;99538.69;;;4.83;100.00
47726;BME280;33483;48.294;16.388;2023-01-13T08:08:40;99546.72;;;4.92;100.00
47726;BME280;33483;48.294;16.388;2023-01-13T08:11:07;99551.25;;;4.95;100.00
47726;BME280;33483;48.294;16.388;2023-01-13T08:13:35;99554.03;;;5.00;100.00
47726;BME280;33483;48.294;16.388;2023-01-13T08:16:05;99555.53;;;5.01;100.00
47726;BME280;33483;48.294;16.388;2023-01-13T08:18:34;99558.59;;;5.09;100.00
47726;BME280;33483;48.294;16.388;2023-01-13T08:21:04;99552.16;;;5.17;100.00
47726;BME280;33483;48.294;16.388;2023-01-13T08:23:32;99557.34;;;5.10;100.00
47726;BME280;33483;48.294;16.388;2023-01-13T08:26:02;99564.69;;;5.24;100.00
47726;BME280;33483;48.294;16.388;2023-01-13T08:28:29;99560.94;;;5.27;100.00
47726;BME280;33483;48.294;16.388;2023-01-13T08:31:02;99553.94;;;5.26;100.00
47726;BME280;33483;48.294;16.388;2023-01-13T08:33:30;99562.28;;;5.37;100.00
47726;BME280;33483;48.294;16.388;2023-01-13T08:36:00;99553.28;;;5.42;100.00
47726;BME280;33483;48.294;16.388;2023-01-13T08:38:28;99556.34;;;5.55;100.00
47726;BME280;33483;48.294;16.388;2023-01-13T08:40:55;99566.88;;;5.62;100.00
47726;BME280;33483;48.294;16.388;2023-01-13T08:43:22;99558.94;;;5.81;100.00
47726;BME280;33483;48.294;16.388;2023-01-13T08:46:00;99550.56;;;6.06;100.00
47726;BME280;33483;48.294;16.388;2023-01-13T08:48:30;99557.38;;;6.27;100.00
47726;BME280;33483;48.294;16.388;2023-01-13T08:51:06;99568.41;;;6.49;100.00
47726;BME280;33483;48.294;16.388;2023-01-13T08:53:33;99565.69;;;6.55;100.00
47726;BME280;33483;48.294;16.388;2023-01-13T08:56:01;99559.41;;;6.54;100.00
47726;BME280;33483;48.294;16.388;2023-01-13T08:58:28;99566.94;;;6.70;100.00
47726;BME280;33483;48.294;16.388;2023-01-13T09:01:03;99574.22;;;6.96;100.00
47726;BME280;33483;48.294;16.388;2023-01-13T09:03:33;99563.16;;;7.12;100.00
47726;BME280;33483;48.294;16.388;2023-01-13T09:06:00;99566.91;;;7.15;100.00
47726;BME280;33483;48.294;16.388;2023-01-13T09:08:28;99567.94;;;7.01;100.00
47726;BME280;33483;48.294;16.388;2023-01-13T09:10:56;99567.44;;;6.97;100.00
47726;BME280;33483;48.294;16.388;2023-01-13T09:13:24;99571.16;;;7.05;100.00
47726;BME280;33483;48.294;16.388;2023-01-13T09:15:51;99570.44;;;7.04;100.00
47726;BME280;33483;48.294;16.388;2023-01-13T09:18:24;99570.91;;;7.08;100.00
47726;BME280;33483;48.294;16.388;2023-01-13T09:20:51;99574.69;;;7.11;100.00
47726;BME280;33483;48.294;16.388;2023-01-13T09:23:18;99570.66;;;7.06;100.00
47726;BME280;33483;48.294;16.388;2023-01-13T09:25:49;99562.91;;;6.99;100.00
47726;BME280;33483;48.294;16.388;2023-01-13T09:28:18;99559.66;;;7.01;100.00
47726;BME280;33483;48.294;16.388;2023-01-13T09:30:45;99561.66;;;7.00;100.00
47726;BME280;33483;48.294;16.388;2023-01-13T09:33:12;99563.41;;;6.98;100.00
47726;BME280;33483;48.294;16.388;2023-01-13T09:35:58;99560.91;;;6.94;100.00
47726;BME280;33483;48.294;16.388;2023-01-13T09:38:27;99562.94;;;6.88;100.00
47726;BME280;33483;48.294;16.388;2023-01-13T09:40:54;99552.41;;;6.87;100.00
47726;BME280;33483;48.294;16.388;2023-01-13T09:43:26;99549.16;;;6.94;100.00
47726;BME280;33483;48.294;16.388;2023-01-13T09:46:21;99539.13;;;6.91;100.00
47726;BME280;33483;48.294;16.388;2023-01-13T09:52:16;99545.38;;;6.97;100.00
47726;BME280;33483;48.294;16.388;2023-01-13T09:55:02;99540.91;;;6.94;100.00
47726;BME280;33483;48.294;16.388;2023-01-13T09:57:33;99518.84;;;6.88;100.00
47726;BME280;33483;48.294;16.388;2023-01-13T10:03:12;99508.34;;;6.92;100.00
47726;BME280;33483;48.294;16.388;2023-01-13T10:05:49;99523.59;;;6.88;100.00
47726;BME280;33483;48.294;16.388;2023-01-13T10:08:29;99520.84;;;6.88;100.00
47726;BME280;33483;48.294;16.388;2023-01-13T10:11:01;99509.84;;;6.88;100.00
47726;BME280;33483;48.294;16.388;2023-01-13T10:13:55;99510.84;;;6.84;100.00
47726;BME280;33483;48.294;16.388;2023-01-13T10:25:01;99512.31;;;7.08;100.00
47726;BME280;33483;48.294;16.388;2023-01-13T10:27:33;99506.81;;;7.02;100.00
47726;BME280;33483;48.294;16.388;2023-01-13T10:33:07;99497.00;;;7.18;100.00
47726;BME280;33483;48.294;16.388;2023-01-13T10:35:52;99497.50;;;7.22;100.00
47726;BME280;33483;48.294;16.388;2023-01-13T10:40:55;99495.72;;;7.24;100.00
47726;BME280;33483;48.294;16.388;2023-01-13T10:43:23;99490.91;;;7.36;100.00
47726;BME280;33483;48.294;16.388;2023-01-13T10:46:04;99484.34;;;7.50;100.00
47726;BME280;33483;48.294;16.388;2023-01-13T10:48:37;99479.81;;;7.58;100.00
47726;BME280;33483;48.294;16.388;2023-01-13T10:56:41;99458.16;;;7.73;100.00
47726;BME280;33483;48.294;16.388;2023-01-13T10:59:14;99457.59;;;7.85;100.00
47726;BME280;33483;48.294;16.388;2023-01-13T11:10:20;99450.84;;;8.16;100.00
47726;BME280;33483;48.294;16.388;2023-01-13T11:13:04;99442.84;;;8.13;100.00
47726;BME280;33483;48.294;16.388;2023-01-13T11:18:20;99441.78;;;8.27;100.00
47726;BME280;33483;48.294;16.388;2023-01-13T11:20:50;99440.28;;;8.26;100.00
47726;BME280;33483;48.294;16.388;2023-01-13T11:23:27;99432.97;;;8.28;100.00
47726;BME280;33483;48.294;16.388;2023-01-13T11:26:11;99436.22;;;8.32;100.00
47726;BME280;33483;48.294;16.388;2023-01-13T11:29:03;99438.66;;;8.41;100.00
47726;BME280;33483;48.294;16.388;2023-01-13T11:31:40;99432.56;;;8.48;100.00
47726;BME280;33483;48.294;16.388;2023-01-13T11:36:52;99436.13;;;8.43;100.00
47726;BME280;33483;48.294;16.388;2023-01-13T11:39:25;99432.06;;;8.50;100.00
47726;BME280;33483;48.294;16.388;2023-01-13T11:42:01;99431.25;;;8.55;100.00
47726;BME280;33483;48.294;16.388;2023-01-13T11:45:10;99418.94;;;8.56;100.00
47726;BME280;33483;48.294;16.388;2023-01-13T11:47:45;99425.69;;;8.60;100.00
47726;BME280;33483;48.294;16.388;2023-01-13T11:50:44;99425.09;;;8.67;100.00
47726;BME280;33483;48.294;16.388;2023-01-13T12:07:24;99413.47;;;8.74;100.00
47726;BME280;33483;48.294;16.388;2023-01-13T12:15:55;99424.34;;;8.67;100.00
47726;BME280;33483;48.294;16.388;2023-01-13T12:26:13;99418.72;;;8.78;100.00
47726;BME280;33483;48.294;16.388;2023-01-13T12:28:50;99409.38;;;8.81;100.00
47726;BME280;33483;48.294;16.388;2023-01-13T12:31:19;99406.19;;;8.77;100.00
47726;BME280;33483;48.294;16.388;2023-01-13T12:39:53;99406.81;;;8.88;100.00
47726;BME280;33483;48.294;16.388;2023-01-13T12:42:39;99411.97;;;8.97;100.00
47726;BME280;33483;48.294;16.388;2023-01-13T12:45:30;99413.66;;;9.06;100.00
47726;BME280;33483;48.294;16.388;2023-01-13T12:47:58;99413.78;;;9.13;100.00
47726;BME280;33483;48.294;16.388;2023-01-13T12:53:30;99412.84;;;9.30;100.00
47726;BME280;33483;48.294;16.388;2023-01-13T13:01:44;99407.34;;;9.48;100.00
47726;BME280;33483;48.294;16.388;2023-01-13T13:04:14;99414.28;;;9.55;100.00
47726;BME280;33483;48.294;16.388;2023-01-13T13:07:03;99400.69;;;9.57;100.00
47726;BME280;33483;48.294;16.388;2023-01-13T13:09:49;99405.16;;;9.60;100.00
47726;BME280;33483;48.294;16.388;2023-01-13T13:15:31;99415.41;;;9.46;100.00
47726;BME280;33483;48.294;16.388;2023-01-13T13:29:17;99430.25;;;9.25;100.00
47726;BME280;33483;48.294;16.388;2023-01-13T13:37:19;99437.94;;;9.13;100.00
47726;BME280;33483;48.294;16.388;2023-01-13T13:39:53;99441.06;;;9.04;100.00
47726;BME280;33483;48.294;16.388;2023-01-13T13:42:43;99438.63;;;8.95;100.00
47726;BME280;33483;48.294;16.388;2023-01-13T13:45:29;99444.91;;;8.95;100.00
47726;BME280;33483;48.294;16.388;2023-01-13T13:48:29;99436.97;;;8.86;100.00
47726;BME280;33483;48.294;16.388;2023-01-13T13:50:58;99433.06;;;8.76;100.00
47726;BME280;33483;48.294;16.388;2023-01-13T13:53:40;99439.09;;;8.75;100.00
47726;BME280;33483;48.294;16.388;2023-01-13T13:56:17;99442.72;;;8.64;100.00
47726;BME280;33483;48.294;16.388;2023-01-13T13:58:47;99443.00;;;8.61;100.00
47726;BME280;33483;48.294;16.388;2023-01-13T14:01:25;99447.31;;;8.56;100.00
47726;BME280;33483;48.294;16.388;2023-01-13T14:04:21;99450.31;;;8.58;100.00
47726;BME280;33483;48.294;16.388;2023-01-13T14:06:57;99448.34;;;8.53;100.00
47726;BME280;33483;48.294;16.388;2023-01-13T14:09:26;99455.13;;;8.52;100.00
47726;BME280;33483;48.294;16.388;2023-01-13T14:11:58;99455.34;;;8.54;100.00
47726;BME280;33483;48.294;16.388;2023-01-13T14:14:26;99459.47;;;8.42;100.00
47726;BME280;33483;48.294;16.388;2023-01-13T14:16:54;99463.00;;;8.43;100.00
47726;BME280;33483;48.294;16.388;2023-01-13T14:19:34;99465.63;;;8.30;100.00
47726;BME280;33483;48.294;16.388;2023-01-13T14:22:04;99468.41;;;8.19;100.00
47726;BME280;33483;48.294;16.388;2023-01-13T14:24:31;99460.69;;;8.12;100.00
47726;BME280;33483;48.294;16.388;2023-01-13T14:27:09;99465.22;;;8.09;100.00
47726;BME280;33483;48.294;16.388;2023-01-13T14:29:39;99465.28;;;8.04;100.00
47726;BME280;33483;48.294;16.388;2023-01-13T14:32:07;99444.72;;;7.99;100.00
47726;BME280;33483;48.294;16.388;2023-01-13T14:34:35;99418.56;;;7.70;100.00
47726;BME280;33483;48.294;16.388;2023-01-13T14:37:31;99401.09;;;7.57;100.00
47726;BME280;33483;48.294;16.388;2023-01-13T14:39:59;99419.97;;;7.42;100.00
47726;BME280;33483;48.294;16.388;2023-01-13T14:42:27;99425.00;;;7.38;100.00
47726;BME280;33483;48.294;16.388;2023-01-13T14:44:57;99427.56;;;7.30;100.00
47726;BME280;33483;48.294;16.388;2023-01-13T14:47:29;99437.34;;;7.26;100.00
47726;BME280;33483;48.294;16.388;2023-01-13T14:52:34;99467.66;;;7.20;100.00
47726;BME280;33483;48.294;16.388;2023-01-13T14:57:38;99454.41;;;7.13;100.00
47726;BME280;33483;48.294;16.388;2023-01-13T15:10:30;99472.22;;;7.07;100.00
47726;BME280;33483;48.294;16.388;2023-01-13T15:13:04;99466.72;;;7.01;100.00
47726;BME280;33483;48.294;16.388;2023-01-13T15:15:34;99469.47;;;7.01;100.00
47726;BME280;33483;48.294;16.388;2023-01-13T15:18:13;99461.47;;;7.03;100.00
47726;BME280;33483;48.294;16.388;2023-01-13T15:20:43;99454.97;;;7.01;100.00
47726;BME280;33483;48.294;16.388;2023-01-13T15:23:11;99461.50;;;6.92;100.00
47726;BME280;33483;48.294;16.388;2023-01-13T15:25:40;99463.25;;;6.84;100.00
47726;BME280;33483;48.294;16.388;2023-01-13T15:30:48;99463.53;;;6.75;100.00
47726;BME280;33483;48.294;16.388;2023-01-13T15:33:17;99467.28;;;6.77;100.00
47726;BME280;33483;48.294;16.388;2023-01-13T15:35:47;99472.28;;;6.79;100.00
47726;BME280;33483;48.294;16.388;2023-01-13T15:38:19;99479.53;;;6.82;100.00
47726;BME280;33483;48.294;16.388;2023-01-13T15:40:48;99479.28;;;6.80;100.00
47726;BME280;33483;48.294;16.388;2023-01-13T15:43:20;99471.03;;;6.80;100.00
47726;BME280;33483;48.294;16.388;2023-01-13T15:46:25;99479.78;;;6.78;100.00
47726;BME280;33483;48.294;16.388;2023-01-13T15:51:43;99490.84;;;6.67;100.00
47726;BME280;33483;48.294;16.388;2023-01-13T15:54:10;99499.84;;;6.62;100.00
47726;BME280;33483;48.294;16.388;2023-01-13T15:56:38;99494.09;;;6.55;100.00
47726;BME280;33483;48.294;16.388;2023-01-13T15:59:15;99510.09;;;6.51;100.00
47726;BME280;33483;48.294;16.388;2023-01-13T16:01:45;99516.63;;;6.53;100.00
47726;BME280;33483;48.294;16.388;2023-01-13T16:04:15;99516.88;;;6.50;100.00